sensor_id;sensor_type;location;lat;lon;timestamp;P1;durP1;ratioP1;P2;durP2;ratioP2
62582;SDS011;48641;51.676;5.808;2022-12-11T00:01:25;13.40;;;5.63;;
62582;SDS011;48641;51.676;5.808;2022-12-11T00:03:51;11.57;;;5.63;;
62582;SDS011;48641;51.676;5.808;2022-12-11T00:06:18;13.85;;;5.70;;
62582;SDS011;48641;51.676;5.808;2022-12-11T00:08:45;14.07;;;5.30;;
62582;SDS011;48641;51.676;5.808;2022-12-11T00:11:12;11.20;;;4.78;;
62582;SDS011;48641;51.676;5.808;2022-12-11T00:13:39;13.10;;;5.38;;
62582;SDS011;48641;51.676;5.808;2022-12-11T00:16:05;13.48;;;5.13;;
62582;SDS011;48641;51.676;5.808;2022-12-11T00:18:30;13.32;;;5.55;;
62582;SDS011;48641;51.676;5.808;2022-12-11T00:20:59;13.60;;;5.75;;
62582;SDS011;48641;51.676;5.808;2022-12-11T00:23:29;13.10;;;5.45;;
62582;SDS011;48641;51.676;5.808;2022-12-11T00:25:55;15.85;;;5.10;;
62582;SDS011;48641;51.676;5.808;2022-12-11T00:28:21;13.38;;;5.78;;
62582;SDS011;48641;51.676;5.808;2022-12-11T00:30:47;12.63;;;5.28;;
62582;SDS011;48641;51.676;5.808;2022-12-11T00:33:13;13.30;;;5.40;;
62582;SDS011;48641;51.676;5.808;2022-12-11T00:35:40;14.43;;;5.30;;
62582;SDS011;48641;51.676;5.808;2022-12-11T00:38:10;13.82;;;5.22;;
62582;SDS011;48641;51.676;5.808;2022-12-11T00:40:42;12.05;;;5.55;;
62582;SDS011;48641;51.676;5.808;2022-12-11T00:43:08;13.32;;;5.43;;
62582;SDS011;48641;51.676;5.808;2022-12-11T00:45:35;12.65;;;4.78;;
62582;SDS011;48641;51.676;5.808;2022-12-11T00:48:08;12.50;;;4.80;;
62582;SDS011;48641;51.676;5.808;2022-12-11T00:50:34;14.77;;;5.78;;
62582;SDS011;48641;51.676;5.808;2022-12-11T00:53:00;13.00;;;5.82;;
62582;SDS011;48641;51.676;5.808;2022-12-11T00:55:27;10.88;;;5.00;;
62582;SDS011;48641;51.676;5.808;2022-12-11T00:57:53;11.38;;;4.97;;
62582;SDS011;48641;51.676;5.808;2022-12-11T01:00:20;12.05;;;5.22;;
62582;SDS011;48641;51.676;5.808;2022-12-11T01:02:49;11.10;;;4.80;;
62582;SDS011;48641;51.676;5.808;2022-12-11T01:05:15;13.82;;;5.38;;
62582;SDS011;48641;51.676;5.808;2022-12-11T01:07:41;13.43;;;5.32;;
62582;SDS011;48641;51.676;5.808;2022-12-11T01:10:06;13.90;;;4.90;;
62582;SDS011;48641;51.676;5.808;2022-12-11T01:12:52;11.45;;;5.05;;
62582;SDS011;48641;51.676;5.808;2022-12-11T01:15:22;10.43;;;5.20;;
62582;SDS011;48641;51.676;5.808;2022-12-11T01:17:50;12.45;;;5.65;;
62582;SDS011;48641;51.676;5.808;2022-12-11T01:20:17;13.10;;;5.13;;
62582;SDS011;48641;51.676;5.808;2022-12-11T01:22:43;11.73;;;4.50;;
62582;SDS011;48641;51.676;5.808;2022-12-11T01:25:09;13.98;;;5.05;;
62582;SDS011;48641;51.676;5.808;2022-12-11T01:27:35;13.23;;;5.00;;
62582;SDS011;48641;51.676;5.808;2022-12-11T01:30:01;13.43;;;5.53;;
62582;SDS011;48641;51.676;5.808;2022-12-11T01:32:28;11.52;;;4.63;;
62582;SDS011;48641;51.676;5.808;2022-12-11T01:34:53;11.48;;;4.43;;
62582;SDS011;48641;51.676;5.808;2022-12-11T01:37:19;12.85;;;4.95;;
62582;SDS011;48641;51.676;5.808;2022-12-11T01:39:45;11.23;;;5.00;;
62582;SDS011;48641;51.676;5.808;2022-12-11T01:42:14;14.02;;;4.63;;
62582;SDS011;48641;51.676;5.808;2022-12-11T01:47:10;11.10;;;4.72;;
62582;SDS011;48641;51.676;5.808;2022-12-11T01:49:35;12.07;;;4.70;;
62582;SDS011;48641;51.676;5.808;2022-12-11T01:52:18;11.55;;;4.95;;
62582;SDS011;48641;51.676;5.808;2022-12-11T01:54:45;11.55;;;4.88;;
62582;SDS011;48641;51.676;5.808;2022-12-11T01:57:12;13.90;;;5.22;;
62582;SDS011;48641;51.676;5.808;2022-12-11T01:59:40;17.00;;;5.53;;
62582;SDS011;48641;51.676;5.808;2022-12-11T02:02:21;11.77;;;5.15;;
62582;SDS011;48641;51.676;5.808;2022-12-11T02:04:51;11.88;;;4.53;;
62582;SDS011;48641;51.676;5.808;2022-12-11T02:07:17;13.73;;;4.70;;
62582;SDS011;48641;51.676;5.808;2022-12-11T02:09:43;12.77;;;5.18;;
62582;SDS011;48641;51.676;5.808;2022-12-11T02:12:30;13.27;;;5.32;;
62582;SDS011;48641;51.676;5.808;2022-12-11T02:20:38;14.43;;;5.10;;
62582;SDS011;48641;51.676;5.808;2022-12-11T02:28:34;12.93;;;4.45;;
62582;SDS011;48641;51.676;5.808;2022-12-11T02:31:11;12.90;;;5.22;;
62582;SDS011;48641;51.676;5.808;2022-12-11T02:33:58;12.70;;;4.90;;
62582;SDS011;48641;51.676;5.808;2022-12-11T02:36:39;12.27;;;4.75;;
62582;SDS011;48641;51.676;5.808;2022-12-11T02:39:08;12.15;;;4.55;;
62582;SDS011;48641;51.676;5.808;2022-12-11T02:44:03;13.43;;;4.80;;
62582;SDS011;48641;51.676;5.808;2022-12-11T02:46:30;12.65;;;4.72;;
62582;SDS011;48641;51.676;5.808;2022-12-11T02:48:58;13.10;;;4.40;;
62582;SDS011;48641;51.676;5.808;2022-12-11T02:51:27;11.93;;;5.23;;
62582;SDS011;48641;51.676;5.808;2022-12-11T02:53:56;10.90;;;4.28;;
62582;SDS011;48641;51.676;5.808;2022-12-11T02:56:25;11.88;;;5.28;;
62582;SDS011;48641;51.676;5.808;2022-12-11T02:58:59;11.63;;;4.72;;
62582;SDS011;48641;51.676;5.808;2022-12-11T03:01:28;11.95;;;4.68;;
62582;SDS011;48641;51.676;5.808;2022-12-11T03:03:54;10.95;;;4.57;;
62582;SDS011;48641;51.676;5.808;2022-12-11T03:06:21;13.25;;;4.72;;
62582;SDS011;48641;51.676;5.808;2022-12-11T03:08:51;12.82;;;5.43;;
62582;SDS011;48641;51.676;5.808;2022-12-11T03:11:17;11.60;;;4.72;;
62582;SDS011;48641;51.676;5.808;2022-12-11T03:13:42;15.02;;;5.45;;
62582;SDS011;48641;51.676;5.808;2022-12-11T03:22:02;11.40;;;4.57;;
62582;SDS011;48641;51.676;5.808;2022-12-11T03:24:52;11.90;;;4.72;;
62582;SDS011;48641;51.676;5.808;2022-12-11T03:30:02;10.10;;;4.10;;
62582;SDS011;48641;51.676;5.808;2022-12-11T03:32:43;10.73;;;4.32;;
62582;SDS011;48641;51.676;5.808;2022-12-11T03:35:22;12.45;;;4.43;;
62582;SDS011;48641;51.676;5.808;2022-12-11T03:37:49;12.00;;;4.85;;
62582;SDS011;48641;51.676;5.808;2022-12-11T03:40:16;12.38;;;4.88;;
62582;SDS011;48641;51.676;5.808;2022-12-11T03:45:13;9.65;;;3.95;;
62582;SDS011;48641;51.676;5.808;2022-12-11T03:47:40;11.27;;;4.20;;
62582;SDS011;48641;51.676;5.808;2022-12-11T03:50:08;11.38;;;4.40;;
62582;SDS011;48641;51.676;5.808;2022-12-11T03:52:36;11.27;;;4.63;;
62582;SDS011;48641;51.676;5.808;2022-12-11T03:55:05;11.35;;;4.38;;
62582;SDS011;48641;51.676;5.808;2022-12-11T03:57:32;11.32;;;4.13;;
62582;SDS011;48641;51.676;5.808;2022-12-11T03:59:59;11.90;;;4.10;;
62582;SDS011;48641;51.676;5.808;2022-12-11T04:02:28;13.43;;;4.78;;
62582;SDS011;48641;51.676;5.808;2022-12-11T04:04:54;13.00;;;4.95;;
62582;SDS011;48641;51.676;5.808;2022-12-11T04:07:20;11.35;;;4.30;;
62582;SDS011;48641;51.676;5.808;2022-12-11T04:09:46;11.13;;;4.20;;
62582;SDS011;48641;51.676;5.808;2022-12-11T04:12:11;8.82;;;3.85;;
62582;SDS011;48641;51.676;5.808;2022-12-11T04:14:37;12.10;;;4.18;;
62582;SDS011;48641;51.676;5.808;2022-12-11T04:17:21;10.90;;;4.35;;
62582;SDS011;48641;51.676;5.808;2022-12-11T04:20:05;11.50;;;4.18;;
62582;SDS011;48641;51.676;5.808;2022-12-11T04:22:50;9.82;;;4.30;;
62582;SDS011;48641;51.676;5.808;2022-12-11T04:25:34;9.65;;;4.38;;
62582;SDS011;48641;51.676;5.808;2022-12-11T04:28:00;10.75;;;4.10;;
62582;SDS011;48641;51.676;5.808;2022-12-11T04:30:25;10.60;;;4.50;;
62582;SDS011;48641;51.676;5.808;2022-12-11T04:32:51;10.55;;;4.03;;
62582;SDS011;48641;51.676;5.808;2022-12-11T04:35:18;9.48;;;3.67;;
62582;SDS011;48641;51.676;5.808;2022-12-11T04:37:44;10.43;;;4.38;;
62582;SDS011;48641;51.676;5.808;2022-12-11T04:40:11;11.63;;;4.28;;
62582;SDS011;48641;51.676;5.808;2022-12-11T04:42:39;9.82;;;4.43;;
62582;SDS011;48641;51.676;5.808;2022-12-11T04:45:05;9.60;;;3.53;;
62582;SDS011;48641;51.676;5.808;2022-12-11T04:47:33;10.07;;;3.78;;
62582;SDS011;48641;51.676;5.808;2022-12-11T04:50:00;9.65;;;3.95;;
62582;SDS011;48641;51.676;5.808;2022-12-11T04:52:25;11.30;;;4.30;;
62582;SDS011;48641;51.676;5.808;2022-12-11T04:54:51;9.98;;;4.00;;
62582;SDS011;48641;51.676;5.808;2022-12-11T04:57:17;10.70;;;3.85;;
62582;SDS011;48641;51.676;5.808;2022-12-11T04:59:44;9.70;;;3.58;;
62582;SDS011;48641;51.676;5.808;2022-12-11T05:02:10;10.43;;;3.85;;
62582;SDS011;48641;51.676;5.808;2022-12-11T05:04:35;12.20;;;3.85;;
62582;SDS011;48641;51.676;5.808;2022-12-11T05:07:01;10.27;;;4.00;;
62582;SDS011;48641;51.676;5.808;2022-12-11T05:09:27;10.20;;;3.85;;
62582;SDS011;48641;51.676;5.808;2022-12-11T05:11:53;10.23;;;4.07;;
62582;SDS011;48641;51.676;5.808;2022-12-11T05:14:19;11.05;;;3.83;;
62582;SDS011;48641;51.676;5.808;2022-12-11T05:16:45;10.50;;;4.07;;
62582;SDS011;48641;51.676;5.808;2022-12-11T05:19:10;9.18;;;3.55;;
62582;SDS011;48641;51.676;5.808;2022-12-11T05:21:36;10.55;;;3.50;;
62582;SDS011;48641;51.676;5.808;2022-12-11T05:24:02;8.93;;;3.35;;
62582;SDS011;48641;51.676;5.808;2022-12-11T05:26:28;9.27;;;3.40;;
62582;SDS011;48641;51.676;5.808;2022-12-11T05:28:54;9.52;;;3.58;;
62582;SDS011;48641;51.676;5.808;2022-12-11T05:31:24;8.60;;;3.40;;
62582;SDS011;48641;51.676;5.808;2022-12-11T05:33:51;9.98;;;3.50;;
62582;SDS011;48641;51.676;5.808;2022-12-11T05:36:22;8.55;;;3.50;;
62582;SDS011;48641;51.676;5.808;2022-12-11T05:38:58;8.32;;;3.55;;
62582;SDS011;48641;51.676;5.808;2022-12-11T05:41:25;8.75;;;3.60;;
62582;SDS011;48641;51.676;5.808;2022-12-11T05:43:51;7.70;;;3.20;;
62582;SDS011;48641;51.676;5.808;2022-12-11T05:46:18;8.90;;;3.55;;
62582;SDS011;48641;51.676;5.808;2022-12-11T05:48:47;8.23;;;3.28;;
62582;SDS011;48641;51.676;5.808;2022-12-11T05:51:14;9.25;;;3.72;;
62582;SDS011;48641;51.676;5.808;2022-12-11T05:53:41;9.43;;;3.88;;
62582;SDS011;48641;51.676;5.808;2022-12-11T05:56:09;7.93;;;3.10;;
62582;SDS011;48641;51.676;5.808;2022-12-11T05:58:40;8.45;;;3.55;;
62582;SDS011;48641;51.676;5.808;2022-12-11T06:01:07;9.40;;;3.40;;
62582;SDS011;48641;51.676;5.808;2022-12-11T06:03:35;8.82;;;3.22;;
62582;SDS011;48641;51.676;5.808;2022-12-11T06:06:02;9.10;;;3.40;;
62582;SDS011;48641;51.676;5.808;2022-12-11T06:08:28;7.93;;;3.20;;
62582;SDS011;48641;51.676;5.808;2022-12-11T06:10:54;9.50;;;3.72;;
62582;SDS011;48641;51.676;5.808;2022-12-11T06:13:20;7.88;;;3.15;;
62582;SDS011;48641;51.676;5.808;2022-12-11T06:15:45;8.43;;;3.20;;
62582;SDS011;48641;51.676;5.808;2022-12-11T06:18:11;8.32;;;3.00;;
62582;SDS011;48641;51.676;5.808;2022-12-11T06:20:37;7.40;;;3.00;;
62582;SDS011;48641;51.676;5.808;2022-12-11T06:23:02;7.78;;;2.75;;
62582;SDS011;48641;51.676;5.808;2022-12-11T06:25:29;8.00;;;3.13;;
62582;SDS011;48641;51.676;5.808;2022-12-11T06:27:54;7.15;;;2.97;;
62582;SDS011;48641;51.676;5.808;2022-12-11T06:30:20;7.13;;;2.58;;
62582;SDS011;48641;51.676;5.808;2022-12-11T06:32:46;7.50;;;2.67;;
62582;SDS011;48641;51.676;5.808;2022-12-11T06:35:12;11.57;;;3.13;;
62582;SDS011;48641;51.676;5.808;2022-12-11T06:37:38;7.47;;;2.60;;
62582;SDS011;48641;51.676;5.808;2022-12-11T06:40:05;9.05;;;3.25;;
62582;SDS011;48641;51.676;5.808;2022-12-11T06:42:32;9.32;;;3.10;;
62582;SDS011;48641;51.676;5.808;2022-12-11T06:44:57;8.73;;;3.20;;
62582;SDS011;48641;51.676;5.808;2022-12-11T06:47:30;7.43;;;2.67;;
62582;SDS011;48641;51.676;5.808;2022-12-11T06:49:57;10.07;;;2.97;;
62582;SDS011;48641;51.676;5.808;2022-12-11T06:52:23;8.88;;;3.17;;
62582;SDS011;48641;51.676;5.808;2022-12-11T06:54:49;7.80;;;3.22;;
62582;SDS011;48641;51.676;5.808;2022-12-11T06:57:15;6.63;;;2.50;;
62582;SDS011;48641;51.676;5.808;2022-12-11T06:59:41;10.20;;;3.00;;
62582;SDS011;48641;51.676;5.808;2022-12-11T07:02:11;7.90;;;2.80;;
62582;SDS011;48641;51.676;5.808;2022-12-11T07:04:38;8.27;;;2.88;;
62582;SDS011;48641;51.676;5.808;2022-12-11T07:07:04;8.02;;;2.97;;
62582;SDS011;48641;51.676;5.808;2022-12-11T07:09:30;7.78;;;3.13;;
62582;SDS011;48641;51.676;5.808;2022-12-11T07:11:56;7.07;;;2.65;;
62582;SDS011;48641;51.676;5.808;2022-12-11T07:14:22;8.23;;;3.00;;
62582;SDS011;48641;51.676;5.808;2022-12-11T07:16:47;9.48;;;3.00;;
62582;SDS011;48641;51.676;5.808;2022-12-11T07:19:13;8.30;;;3.13;;
62582;SDS011;48641;51.676;5.808;2022-12-11T07:21:39;7.50;;;2.75;;
62582;SDS011;48641;51.676;5.808;2022-12-11T07:24:05;8.95;;;2.97;;
62582;SDS011;48641;51.676;5.808;2022-12-11T07:26:31;7.97;;;2.80;;
62582;SDS011;48641;51.676;5.808;2022-12-11T07:28:57;7.35;;;2.72;;
62582;SDS011;48641;51.676;5.808;2022-12-11T07:31:24;8.45;;;3.05;;
62582;SDS011;48641;51.676;5.808;2022-12-11T07:33:54;7.50;;;2.80;;
62582;SDS011;48641;51.676;5.808;2022-12-11T07:36:28;10.85;;;3.17;;
62582;SDS011;48641;51.676;5.808;2022-12-11T07:38:54;7.82;;;2.90;;
62582;SDS011;48641;51.676;5.808;2022-12-11T07:41:20;7.72;;;3.10;;
62582;SDS011;48641;51.676;5.808;2022-12-11T07:43:47;8.15;;;2.88;;
62582;SDS011;48641;51.676;5.808;2022-12-11T07:46:14;6.85;;;2.60;;
62582;SDS011;48641;51.676;5.808;2022-12-11T07:48:42;6.20;;;2.55;;
62582;SDS011;48641;51.676;5.808;2022-12-11T07:51:11;7.13;;;2.45;;
62582;SDS011;48641;51.676;5.808;2022-12-11T07:53:44;11.25;;;3.03;;
62582;SDS011;48641;51.676;5.808;2022-12-11T07:56:10;9.95;;;3.38;;
62582;SDS011;48641;51.676;5.808;2022-12-11T07:58:36;9.20;;;3.13;;
62582;SDS011;48641;51.676;5.808;2022-12-11T08:01:03;8.05;;;3.10;;
62582;SDS011;48641;51.676;5.808;2022-12-11T08:03:29;7.57;;;2.63;;
62582;SDS011;48641;51.676;5.808;2022-12-11T08:05:55;7.25;;;2.75;;
62582;SDS011;48641;51.676;5.808;2022-12-11T08:08:21;8.13;;;3.08;;
62582;SDS011;48641;51.676;5.808;2022-12-11T08:10:46;6.97;;;2.67;;
62582;SDS011;48641;51.676;5.808;2022-12-11T08:13:12;6.97;;;3.00;;
62582;SDS011;48641;51.676;5.808;2022-12-11T08:15:37;8.02;;;3.40;;
62582;SDS011;48641;51.676;5.808;2022-12-11T08:18:04;7.70;;;2.63;;
62582;SDS011;48641;51.676;5.808;2022-12-11T08:20:29;7.63;;;3.08;;
62582;SDS011;48641;51.676;5.808;2022-12-11T08:22:55;7.28;;;2.67;;
62582;SDS011;48641;51.676;5.808;2022-12-11T08:25:22;7.70;;;2.80;;
62582;SDS011;48641;51.676;5.808;2022-12-11T08:27:47;6.97;;;2.80;;
62582;SDS011;48641;51.676;5.808;2022-12-11T08:30:13;7.82;;;3.05;;
62582;SDS011;48641;51.676;5.808;2022-12-11T08:32:39;6.85;;;2.55;;
62582;SDS011;48641;51.676;5.808;2022-12-11T08:35:05;6.65;;;2.42;;
62582;SDS011;48641;51.676;5.808;2022-12-11T08:37:32;6.97;;;2.40;;
62582;SDS011;48641;51.676;5.808;2022-12-11T08:39:58;7.57;;;2.80;;
62582;SDS011;48641;51.676;5.808;2022-12-11T08:42:24;6.43;;;2.80;;
62582;SDS011;48641;51.676;5.808;2022-12-11T08:44:49;6.75;;;2.65;;
62582;SDS011;48641;51.676;5.808;2022-12-11T08:47:15;7.43;;;2.60;;
62582;SDS011;48641;51.676;5.808;2022-12-11T08:49:41;8.07;;;3.65;;
62582;SDS011;48641;51.676;5.808;2022-12-11T08:52:07;8.57;;;3.35;;
62582;SDS011;48641;51.676;5.808;2022-12-11T08:54:33;7.38;;;2.58;;
62582;SDS011;48641;51.676;5.808;2022-12-11T08:56:58;6.72;;;2.80;;
62582;SDS011;48641;51.676;5.808;2022-12-11T08:59:24;6.97;;;2.83;;
62582;SDS011;48641;51.676;5.808;2022-12-11T09:01:50;8.15;;;3.35;;
62582;SDS011;48641;51.676;5.808;2022-12-11T09:04:16;7.82;;;3.00;;
62582;SDS011;48641;51.676;5.808;2022-12-11T09:06:41;6.55;;;2.67;;
62582;SDS011;48641;51.676;5.808;2022-12-11T09:09:07;7.78;;;2.80;;
62582;SDS011;48641;51.676;5.808;2022-12-11T09:11:34;9.43;;;3.13;;
62582;SDS011;48641;51.676;5.808;2022-12-11T09:14:01;6.93;;;2.90;;
62582;SDS011;48641;51.676;5.808;2022-12-11T09:16:28;8.75;;;3.58;;
62582;SDS011;48641;51.676;5.808;2022-12-11T09:18:55;7.07;;;3.05;;
62582;SDS011;48641;51.676;5.808;2022-12-11T09:21:23;8.18;;;3.10;;
62582;SDS011;48641;51.676;5.808;2022-12-11T09:23:54;8.10;;;3.33;;
62582;SDS011;48641;51.676;5.808;2022-12-11T09:26:21;7.22;;;3.00;;
62582;SDS011;48641;51.676;5.808;2022-12-11T09:28:47;7.63;;;3.10;;
62582;SDS011;48641;51.676;5.808;2022-12-11T09:31:18;7.50;;;2.90;;
62582;SDS011;48641;51.676;5.808;2022-12-11T09:33:47;6.78;;;2.80;;
62582;SDS011;48641;51.676;5.808;2022-12-11T09:36:14;7.47;;;2.90;;
62582;SDS011;48641;51.676;5.808;2022-12-11T09:38:40;7.68;;;2.85;;
62582;SDS011;48641;51.676;5.808;2022-12-11T09:43:47;8.88;;;2.92;;
62582;SDS011;48641;51.676;5.808;2022-12-11T09:46:20;6.90;;;3.00;;
62582;SDS011;48641;51.676;5.808;2022-12-11T09:48:46;7.13;;;2.97;;
62582;SDS011;48641;51.676;5.808;2022-12-11T09:53:51;7.78;;;3.00;;
62582;SDS011;48641;51.676;5.808;2022-12-11T09:56:25;7.22;;;2.90;;
62582;SDS011;48641;51.676;5.808;2022-12-11T09:59:20;6.97;;;2.95;;
62582;SDS011;48641;51.676;5.808;2022-12-11T10:17:55;6.88;;;2.78;;
62582;SDS011;48641;51.676;5.808;2022-12-11T10:22:55;6.88;;;3.10;;
62582;SDS011;48641;51.676;5.808;2022-12-11T10:27:53;7.80;;;3.20;;
62582;SDS011;48641;51.676;5.808;2022-12-11T10:30:23;7.60;;;2.92;;
62582;SDS011;48641;51.676;5.808;2022-12-11T10:35:30;7.68;;;3.08;;
62582;SDS011;48641;51.676;5.808;2022-12-11T10:41:12;6.53;;;3.00;;
62582;SDS011;48641;51.676;5.808;2022-12-11T10:43:42;7.57;;;2.83;;
62582;SDS011;48641;51.676;5.808;2022-12-11T10:46:17;5.75;;;2.60;;
62582;SDS011;48641;51.676;5.808;2022-12-11T10:48:54;7.82;;;3.05;;
62582;SDS011;48641;51.676;5.808;2022-12-11T10:51:22;8.57;;;3.00;;
62582;SDS011;48641;51.676;5.808;2022-12-11T10:53:54;7.65;;;2.80;;
62582;SDS011;48641;51.676;5.808;2022-12-11T10:56:26;7.30;;;2.63;;
62582;SDS011;48641;51.676;5.808;2022-12-11T10:58:52;7.85;;;2.90;;
62582;SDS011;48641;51.676;5.808;2022-12-11T11:01:20;8.52;;;3.17;;
62582;SDS011;48641;51.676;5.808;2022-12-11T11:06:20;8.30;;;3.13;;
62582;SDS011;48641;51.676;5.808;2022-12-11T11:08:47;6.63;;;2.75;;
62582;SDS011;48641;51.676;5.808;2022-12-11T11:11:26;7.28;;;2.95;;
62582;SDS011;48641;51.676;5.808;2022-12-11T11:16:45;7.05;;;3.20;;
62582;SDS011;48641;51.676;5.808;2022-12-11T11:19:23;6.50;;;2.58;;
62582;SDS011;48641;51.676;5.808;2022-12-11T11:21:50;7.15;;;2.78;;
62582;SDS011;48641;51.676;5.808;2022-12-11T11:24:40;5.72;;;2.28;;
62582;SDS011;48641;51.676;5.808;2022-12-11T11:29:48;6.88;;;2.58;;
62582;SDS011;48641;51.676;5.808;2022-12-11T11:32:21;7.10;;;2.55;;
62582;SDS011;48641;51.676;5.808;2022-12-11T11:34:51;6.90;;;2.75;;
62582;SDS011;48641;51.676;5.808;2022-12-11T11:37:24;7.30;;;2.58;;
62582;SDS011;48641;51.676;5.808;2022-12-11T11:39:56;7.40;;;3.00;;
62582;SDS011;48641;51.676;5.808;2022-12-11T11:42:40;7.65;;;2.72;;
62582;SDS011;48641;51.676;5.808;2022-12-11T11:45:13;6.30;;;2.50;;
62582;SDS011;48641;51.676;5.808;2022-12-11T11:47:49;6.18;;;2.67;;
62582;SDS011;48641;51.676;5.808;2022-12-11T11:50:37;6.70;;;2.72;;
62582;SDS011;48641;51.676;5.808;2022-12-11T11:53:11;6.50;;;2.65;;
62582;SDS011;48641;51.676;5.808;2022-12-11T11:56:26;8.63;;;2.90;;
62582;SDS011;48641;51.676;5.808;2022-12-11T12:01:35;6.72;;;2.60;;
62582;SDS011;48641;51.676;5.808;2022-12-11T12:04:02;6.53;;;2.53;;
62582;SDS011;48641;51.676;5.808;2022-12-11T12:31:57;6.63;;;2.83;;
62582;SDS011;48641;51.676;5.808;2022-12-11T12:34:32;7.50;;;2.72;;
62582;SDS011;48641;51.676;5.808;2022-12-11T12:40:22;6.72;;;2.70;;
62582;SDS011;48641;51.676;5.808;2022-12-11T12:46:02;6.18;;;2.47;;
62582;SDS011;48641;51.676;5.808;2022-12-11T12:48:46;7.00;;;2.67;;
62582;SDS011;48641;51.676;5.808;2022-12-11T12:51:13;6.57;;;2.38;;
62582;SDS011;48641;51.676;5.808;2022-12-11T12:53:40;6.13;;;2.35;;
62582;SDS011;48641;51.676;5.808;2022-12-11T12:56:11;7.57;;;2.65;;
62582;SDS011;48641;51.676;5.808;2022-12-11T13:01:14;7.00;;;2.33;;
62582;SDS011;48641;51.676;5.808;2022-12-11T13:09:25;7.72;;;2.72;;
62582;SDS011;48641;51.676;5.808;2022-12-11T13:11:55;7.18;;;2.72;;
62582;SDS011;48641;51.676;5.808;2022-12-11T13:16:52;6.25;;;2.03;;
62582;SDS011;48641;51.676;5.808;2022-12-11T13:19:31;8.40;;;2.70;;
62582;SDS011;48641;51.676;5.808;2022-12-11T13:22:16;5.95;;;2.30;;
62582;SDS011;48641;51.676;5.808;2022-12-11T13:24:46;6.03;;;2.13;;
62582;SDS011;48641;51.676;5.808;2022-12-11T13:27:23;6.00;;;2.65;;
62582;SDS011;48641;51.676;5.808;2022-12-11T13:29:49;5.78;;;2.20;;
62582;SDS011;48641;51.676;5.808;2022-12-11T13:34:41;5.50;;;1.95;;
62582;SDS011;48641;51.676;5.808;2022-12-11T13:37:30;6.70;;;2.30;;
62582;SDS011;48641;51.676;5.808;2022-12-11T13:40:07;5.55;;;2.28;;
62582;SDS011;48641;51.676;5.808;2022-12-11T13:42:58;5.57;;;2.00;;
62582;SDS011;48641;51.676;5.808;2022-12-11T13:45:49;6.30;;;2.58;;
62582;SDS011;48641;51.676;5.808;2022-12-11T13:48:22;7.00;;;2.15;;
62582;SDS011;48641;51.676;5.808;2022-12-11T13:50:51;6.50;;;2.42;;
62582;SDS011;48641;51.676;5.808;2022-12-11T13:53:19;6.03;;;2.35;;
62582;SDS011;48641;51.676;5.808;2022-12-11T13:55:46;5.82;;;2.03;;
62582;SDS011;48641;51.676;5.808;2022-12-11T13:58:28;6.60;;;2.60;;
62582;SDS011;48641;51.676;5.808;2022-12-11T14:03:38;6.50;;;2.28;;
62582;SDS011;48641;51.676;5.808;2022-12-11T14:08:35;6.93;;;2.00;;
62582;SDS011;48641;51.676;5.808;2022-12-11T14:11:03;6.13;;;2.40;;
62582;SDS011;48641;51.676;5.808;2022-12-11T14:13:37;5.30;;;2.22;;
62582;SDS011;48641;51.676;5.808;2022-12-11T14:16:04;6.05;;;2.58;;
62582;SDS011;48641;51.676;5.808;2022-12-11T14:18:32;6.30;;;2.20;;
62582;SDS011;48641;51.676;5.808;2022-12-11T14:21:00;7.22;;;2.17;;
62582;SDS011;48641;51.676;5.808;2022-12-11T14:23:29;6.15;;;2.45;;
62582;SDS011;48641;51.676;5.808;2022-12-11T14:26:00;5.20;;;2.15;;
62582;SDS011;48641;51.676;5.808;2022-12-11T14:28:43;5.35;;;2.15;;
62582;SDS011;48641;51.676;5.808;2022-12-11T14:31:10;8.50;;;2.55;;
62582;SDS011;48641;51.676;5.808;2022-12-11T14:33:40;5.68;;;2.38;;
62582;SDS011;48641;51.676;5.808;2022-12-11T14:36:11;5.28;;;2.00;;
62582;SDS011;48641;51.676;5.808;2022-12-11T14:38:43;6.22;;;2.10;;
62582;SDS011;48641;51.676;5.808;2022-12-11T14:44:03;6.15;;;2.13;;
62582;SDS011;48641;51.676;5.808;2022-12-11T14:49:37;5.65;;;2.33;;
62582;SDS011;48641;51.676;5.808;2022-12-11T14:52:10;5.38;;;2.17;;
62582;SDS011;48641;51.676;5.808;2022-12-11T14:54:42;6.72;;;2.20;;
62582;SDS011;48641;51.676;5.808;2022-12-11T14:57:15;6.43;;;2.70;;
62582;SDS011;48641;51.676;5.808;2022-12-11T14:59:46;5.50;;;2.13;;
62582;SDS011;48641;51.676;5.808;2022-12-11T15:07:52;4.93;;;1.80;;
62582;SDS011;48641;51.676;5.808;2022-12-11T15:10:29;5.68;;;1.95;;
62582;SDS011;48641;51.676;5.808;2022-12-11T15:13:00;4.70;;;1.95;;
62582;SDS011;48641;51.676;5.808;2022-12-11T15:15:27;5.68;;;2.22;;
62582;SDS011;48641;51.676;5.808;2022-12-11T15:17:56;5.55;;;1.92;;
62582;SDS011;48641;51.676;5.808;2022-12-11T15:20:26;5.93;;;2.17;;
62582;SDS011;48641;51.676;5.808;2022-12-11T15:22:56;6.63;;;2.28;;
62582;SDS011;48641;51.676;5.808;2022-12-11T15:25:25;5.10;;;2.00;;
62582;SDS011;48641;51.676;5.808;2022-12-11T15:27:53;5.20;;;2.03;;
62582;SDS011;48641;51.676;5.808;2022-12-11T15:30:27;4.93;;;1.80;;
62582;SDS011;48641;51.676;5.808;2022-12-11T15:35:33;5.45;;;2.10;;
62582;SDS011;48641;51.676;5.808;2022-12-11T15:38:00;5.68;;;2.25;;
62582;SDS011;48641;51.676;5.808;2022-12-11T15:40:26;5.32;;;1.85;;
62582;SDS011;48641;51.676;5.808;2022-12-11T15:42:52;5.78;;;2.00;;
62582;SDS011;48641;51.676;5.808;2022-12-11T15:45:26;4.50;;;1.80;;
62582;SDS011;48641;51.676;5.808;2022-12-11T15:47:52;6.18;;;2.40;;
62582;SDS011;48641;51.676;5.808;2022-12-11T15:50:25;5.07;;;2.00;;
62582;SDS011;48641;51.676;5.808;2022-12-11T15:52:53;6.38;;;2.40;;
62582;SDS011;48641;51.676;5.808;2022-12-11T15:55:20;5.50;;;2.15;;
62582;SDS011;48641;51.676;5.808;2022-12-11T15:57:54;5.15;;;2.10;;
62582;SDS011;48641;51.676;5.808;2022-12-11T16:00:25;8.60;;;2.60;;
62582;SDS011;48641;51.676;5.808;2022-12-11T16:02:52;6.47;;;2.20;;
62582;SDS011;48641;51.676;5.808;2022-12-11T16:05:18;6.05;;;1.98;;
62582;SDS011;48641;51.676;5.808;2022-12-11T16:07:43;5.47;;;2.20;;
62582;SDS011;48641;51.676;5.808;2022-12-11T16:10:11;5.00;;;2.13;;
62582;SDS011;48641;51.676;5.808;2022-12-11T16:12:40;6.60;;;2.50;;
62582;SDS011;48641;51.676;5.808;2022-12-11T16:15:06;5.53;;;1.80;;
62582;SDS011;48641;51.676;5.808;2022-12-11T16:17:32;4.90;;;2.20;;
62582;SDS011;48641;51.676;5.808;2022-12-11T16:19:58;4.53;;;1.92;;
62582;SDS011;48641;51.676;5.808;2022-12-11T16:22:24;5.38;;;2.03;;
62582;SDS011;48641;51.676;5.808;2022-12-11T16:24:53;5.43;;;2.15;;
62582;SDS011;48641;51.676;5.808;2022-12-11T16:27:19;6.00;;;2.10;;
62582;SDS011;48641;51.676;5.808;2022-12-11T16:29:45;6.97;;;2.10;;
62582;SDS011;48641;51.676;5.808;2022-12-11T16:32:11;6.82;;;2.22;;
62582;SDS011;48641;51.676;5.808;2022-12-11T16:34:36;5.82;;;2.00;;
62582;SDS011;48641;51.676;5.808;2022-12-11T16:37:02;6.43;;;2.30;;
62582;SDS011;48641;51.676;5.808;2022-12-11T16:39:29;5.32;;;2.03;;
62582;SDS011;48641;51.676;5.808;2022-12-11T16:41:55;5.00;;;2.15;;
62582;SDS011;48641;51.676;5.808;2022-12-11T16:44:21;5.60;;;2.05;;
62582;SDS011;48641;51.676;5.808;2022-12-11T16:46:48;6.85;;;2.30;;
62582;SDS011;48641;51.676;5.808;2022-12-11T16:49:14;6.57;;;2.20;;
62582;SDS011;48641;51.676;5.808;2022-12-11T16:51:40;5.70;;;2.67;;
62582;SDS011;48641;51.676;5.808;2022-12-11T16:54:06;5.80;;;1.98;;
62582;SDS011;48641;51.676;5.808;2022-12-11T16:56:32;6.18;;;2.20;;
62582;SDS011;48641;51.676;5.808;2022-12-11T16:58:59;5.93;;;2.10;;
62582;SDS011;48641;51.676;5.808;2022-12-11T17:01:25;5.38;;;2.17;;
62582;SDS011;48641;51.676;5.808;2022-12-11T17:03:51;5.07;;;1.92;;
62582;SDS011;48641;51.676;5.808;2022-12-11T17:06:16;5.50;;;2.00;;
62582;SDS011;48641;51.676;5.808;2022-12-11T17:08:43;5.70;;;2.17;;